Palmer, PR (00721)

4:32 AM AST on July 31, 2016 (GMT -0400)
Ciudad Jardin | | Change Station
Active Advisory: Flash Flood Watch

Elev 10 ft 18.37 °N, 65.93 °W | Updated 2 minutes ago

Mostly Cloudy
Mostly Cloudy
79.2 °F
Feels Like 84 °F
N
1.0
Wind Variable Wind from ENE
Gusts 3.0 mph

Today
High -- | Low -- °F
--% Chance of Precip.
Yesterday
High -- | Low -- °F
Precip. -- in
Pressure 29.94 in
Visibility 9.0 miles
Clouds Scattered Clouds 1700 ft
Mostly Cloudy 2300 ft
Mostly Cloudy 2800 ft
Heat Index 84 °F
Dew Point 77 °F
Humidity 93%
Rainfall 0.12 in
Snow Depth Not available.
6:00 AM 6:57 PM
Waning Crescent, 8% visible
SPECI TJNR 310808Z AUTO 05010KT 9SM SCT017 BKN023 BKN028 27/26 A2994 RMK AO2 T02670256 PNO
Pressure 29.94 in
Visibility 9.0 miles
Clouds Scattered Clouds 1700 ft
Mostly Cloudy 2300 ft
Mostly Cloudy 2800 ft
Heat Index 84 °F
Dew Point 77 °F
Humidity 93%
Rainfall 0.12 in
Snow Depth Not available.
6:00 AM 6:57 PM
Waning Crescent, 8% visible
SPECI TJNR 310808Z AUTO 05010KT 9SM SCT017 BKN023 BKN028 27/26 A2994 RMK AO2 T02670256 PNO

10-Day Weather Forecast

Almanac

Astronomy

Jul. 31, 2016 Rise Set
Actual Time
Civil Twilight
Nautical Twilight
Astronomical Twilight
Moon
Length of Visible Light
Length of Day
Tomorrow will be .
, % of the Moon is Illuminated

Today's Extremes

State Highs State Lows

Community

WunderPhotos

Upload Photos

1,928,768 photos uploaded!

WunderBlog® & News

Nearby

Air Quality

  Air Quality AQ Index Pollutant
Not available.

Snow Depth

Station Depth Elevation

Earthquake Activity

City Distance Mag. Time & Date
Minimum magnitude displayed is 2.5.

Coastal Water Temperatures

Place Temperature

Stations

Nearby Weather Stations

Station Location Temp. Windchill Dew Point Humidity Wind Precip. Elev Updated Type
                   

Watches & Warnings

Flash Flood Watch
Issued: 8:58 PM AST Jul. 30, 2016 – National Weather Service

... Flash Flood Watch remains in effect from 6 am AST Sunday
through Sunday evening...

The Flash Flood Watch continues for

* Puerto Rico and the U.S. Virgin Islands.

* From 6 am AST Sunday through Sunday evening

* a strong tropical wave will continue to approach the local
islands during the overnight hours into Sunday morning. Showers
and thunderstorms are expected to increase overnight and spread
across the region through Sunday. The most active period
appears to be from early Sunday morning through Sunday night.

* The potential of flooding rains is high for Puerto Rico and
the U.S. Virgin Islands on Sunday. Rainfall totals between 2
and 4 inches with locally higher amounts are possible with
this strong tropical wave. Localized flash flooding and
landslides are likely in areas of persistent heavy rainfall.

Precautionary/preparedness actions...

A Flash Flood Watch means that conditions may develop that lead
to flash flooding. Flash flooding is a very dangerous situation.

You should monitor later forecasts and be prepared to take action
should flash flood warnings be issued.